createdAt,value
2018-11-11T00:00:17.105Z,51.90
2018-11-11T00:00:54.686Z,51.90
2018-11-11T00:01:32.375Z,51.80
2018-11-11T00:02:09.886Z,51.90
2018-11-11T00:02:47.327Z,51.90
2018-11-11T00:03:24.976Z,52.00
2018-11-11T00:04:02.490Z,52.10
2018-11-11T00:04:40.083Z,51.90
2018-11-11T00:05:17.994Z,51.90
2018-11-11T00:05:55.481Z,51.90
2018-11-11T00:06:33.231Z,51.80
2018-11-11T00:07:10.915Z,51.90
2018-11-11T00:07:48.413Z,51.70
2018-11-11T00:08:25.872Z,52.00
2018-11-11T00:09:03.433Z,51.90
2018-11-11T00:09:41.030Z,51.90
2018-11-11T00:10:18.535Z,51.90
2018-11-11T00:10:56.168Z,51.90
2018-11-11T00:11:33.590Z,51.90
2018-11-11T00:12:10.965Z,51.90
2018-11-11T00:12:48.461Z,52.30
2018-11-11T00:13:25.845Z,52.00
2018-11-11T00:14:03.328Z,52.00
2018-11-11T00:14:40.738Z,51.90
2018-11-11T00:15:18.317Z,51.80
2018-11-11T00:15:55.961Z,52.00
2018-11-11T00:16:33.369Z,52.00
2018-11-11T00:17:10.877Z,51.90
2018-11-11T00:17:48.707Z,51.80
2018-11-11T00:18:26.375Z,51.80
2018-11-11T00:19:03.971Z,51.90
2018-11-11T00:19:41.315Z,51.90
2018-11-11T00:20:18.762Z,51.70
2018-11-11T00:20:56.036Z,51.90
2018-11-11T00:21:33.683Z,51.90
2018-11-11T00:22:11.446Z,51.90
2018-11-11T00:22:48.939Z,51.80
2018-11-11T00:23:26.304Z,51.80
2018-11-11T00:24:03.892Z,51.90
2018-11-11T00:24:41.206Z,52.00
2018-11-11T00:25:18.820Z,51.90
2018-11-11T00:25:56.443Z,51.90
2018-11-11T00:26:33.985Z,51.90
2018-11-11T00:27:11.504Z,51.90
2018-11-11T00:27:49.296Z,51.90
2018-11-11T00:28:26.681Z,52.00
2018-11-11T00:29:04.269Z,51.80
2018-11-11T00:29:41.746Z,51.80
2018-11-11T00:30:19.413Z,52.00
2018-11-11T00:30:57.014Z,51.90
2018-11-11T00:31:34.886Z,51.80
2018-11-11T00:32:12.357Z,51.90
2018-11-11T00:32:49.927Z,51.80
2018-11-11T00:33:27.420Z,51.80
2018-11-11T00:34:04.966Z,51.80
2018-11-11T00:34:42.619Z,51.90
2018-11-11T00:35:20.179Z,51.90
2018-11-11T00:35:57.651Z,51.90
2018-11-11T00:36:35.138Z,51.80
2018-11-11T00:37:12.530Z,51.80
2018-11-11T00:37:50.025Z,51.70
2018-11-11T00:38:27.583Z,51.90
2018-11-11T00:39:05.229Z,51.80
2018-11-11T00:39:42.664Z,51.90
2018-11-11T00:40:20.142Z,51.90
2018-11-11T00:40:57.738Z,51.80
2018-11-11T00:41:35.138Z,51.80
2018-11-11T00:42:13.159Z,51.90
2018-11-11T00:42:50.530Z,52.00
2018-11-11T00:43:28.070Z,51.80
2018-11-11T00:44:05.689Z,51.90
2018-11-11T00:44:43.300Z,51.70
2018-11-11T00:45:20.601Z,51.90
2018-11-11T00:45:58.198Z,51.90
2018-11-11T00:46:35.767Z,52.50
2018-11-11T00:47:13.456Z,51.80
2018-11-11T00:47:51.023Z,51.80
2018-11-11T00:48:28.695Z,51.80
2018-11-11T00:49:06.377Z,51.70
2018-11-11T00:49:44.141Z,51.70
2018-11-11T00:50:21.777Z,51.80
2018-11-11T00:50:59.474Z,51.80
2018-11-11T00:51:36.927Z,51.80
2018-11-11T00:52:14.637Z,51.80
2018-11-11T00:52:52.176Z,51.90
2018-11-11T00:53:29.790Z,51.80
2018-11-11T00:54:07.316Z,51.80
2018-11-11T00:54:44.936Z,51.80
2018-11-11T00:55:22.629Z,51.90
2018-11-11T00:56:00.228Z,51.80
2018-11-11T00:56:37.804Z,51.80
2018-11-11T00:57:15.366Z,51.80
2018-11-11T00:57:52.946Z,51.80
2018-11-11T00:58:31.065Z,51.90
2018-11-11T00:59:08.637Z,51.80
2018-11-11T00:59:46.198Z,51.80
2018-11-11T01:00:23.800Z,51.80
2018-11-11T01:01:01.408Z,51.80
2018-11-11T01:01:38.948Z,51.80
2018-11-11T01:02:16.543Z,51.80
2018-11-11T01:02:54.169Z,51.90
2018-11-11T01:03:31.836Z,51.90
2018-11-11T01:04:09.594Z,51.90
2018-11-11T01:04:47.363Z,51.80
2018-11-11T01:05:24.943Z,51.90
2018-11-11T01:06:02.652Z,51.80
2018-11-11T01:06:40.155Z,51.90
2018-11-11T01:07:17.516Z,51.80
2018-11-11T01:07:55.272Z,51.80
2018-11-11T01:08:32.863Z,51.80
2018-11-11T01:09:10.537Z,51.80
2018-11-11T01:09:48.228Z,51.80
2018-11-11T01:10:25.906Z,51.90
2018-11-11T01:11:03.410Z,51.90
2018-11-11T01:11:41.068Z,51.90
2018-11-11T01:12:18.629Z,51.80
2018-11-11T01:12:56.568Z,51.90
2018-11-11T01:13:33.891Z,51.90
2018-11-11T01:14:11.531Z,51.90
2018-11-11T01:14:49.101Z,51.80
2018-11-11T01:15:26.890Z,51.70
2018-11-11T01:16:04.152Z,51.80
2018-11-11T01:16:41.823Z,51.80
2018-11-11T01:17:19.322Z,51.80
2018-11-11T01:17:56.872Z,51.90
2018-11-11T01:18:34.255Z,51.70
2018-11-11T01:19:11.935Z,51.70
2018-11-11T01:19:49.486Z,51.80
2018-11-11T01:20:27.307Z,51.80
2018-11-11T01:21:04.974Z,51.80
2018-11-11T01:21:42.725Z,51.80
2018-11-11T01:22:20.163Z,51.90
2018-11-11T01:22:57.751Z,51.90
2018-11-11T01:23:35.243Z,51.80
2018-11-11T01:24:12.613Z,51.80
2018-11-11T01:24:49.950Z,51.90
2018-11-11T01:25:27.313Z,51.90
2018-11-11T01:26:04.876Z,51.80
2018-11-11T01:26:42.300Z,51.80
2018-11-11T01:27:19.914Z,51.70
2018-11-11T01:27:57.672Z,51.80
2018-11-11T01:28:35.151Z,51.80
2018-11-11T01:29:12.773Z,51.70
2018-11-11T01:29:50.395Z,51.70
2018-11-11T01:30:27.786Z,51.80
2018-11-11T01:31:05.302Z,51.80
2018-11-11T01:31:42.563Z,51.90
2018-11-11T01:32:20.243Z,51.70
2018-11-11T01:32:57.819Z,51.70
2018-11-11T01:33:35.066Z,51.80
2018-11-11T01:34:12.440Z,51.70
2018-11-11T01:34:50.249Z,51.80
2018-11-11T01:35:27.503Z,51.80
2018-11-11T01:36:05.079Z,51.80
2018-11-11T01:36:42.573Z,51.70
2018-11-11T01:37:19.891Z,51.80
2018-11-11T01:37:57.335Z,51.70
2018-11-11T01:38:34.985Z,51.80
2018-11-11T01:39:12.672Z,51.70
2018-11-11T01:39:50.378Z,51.60
2018-11-11T01:40:27.669Z,51.70
2018-11-11T01:41:05.313Z,51.70
2018-11-11T01:41:43.021Z,51.80
2018-11-11T01:42:20.477Z,51.70
2018-11-11T01:42:58.417Z,51.70
2018-11-11T01:43:35.889Z,51.70
2018-11-11T01:44:13.487Z,51.70
2018-11-11T01:44:51.048Z,51.80
2018-11-11T01:45:28.486Z,51.70
2018-11-11T01:46:06.036Z,51.70
2018-11-11T01:46:44.038Z,51.80
2018-11-11T01:47:21.939Z,51.70
2018-11-11T01:47:59.649Z,51.80
2018-11-11T01:48:37.264Z,51.70
2018-11-11T01:49:14.630Z,51.80
2018-11-11T01:49:52.060Z,51.70
2018-11-11T01:50:29.625Z,51.70
2018-11-11T01:51:06.843Z,51.80
2018-11-11T01:51:44.423Z,51.50
2018-11-11T01:52:21.799Z,51.50
2018-11-11T01:52:59.388Z,51.70
2018-11-11T01:53:37.166Z,51.60
2018-11-11T01:54:14.541Z,51.70
2018-11-11T01:54:52.268Z,51.80
2018-11-11T01:55:29.728Z,51.60
2018-11-11T01:56:07.132Z,51.70
2018-11-11T01:56:44.591Z,51.70
2018-11-11T01:57:22.233Z,51.50
2018-11-11T01:57:59.772Z,51.60
2018-11-11T01:58:37.665Z,51.70
2018-11-11T01:59:15.138Z,51.70
2018-11-11T01:59:52.545Z,51.50
2018-11-11T02:00:30.090Z,51.50
2018-11-11T02:01:07.735Z,51.60
2018-11-11T02:01:45.198Z,51.60
2018-11-11T02:02:22.826Z,52.30
2018-11-11T02:03:00.238Z,51.50
2018-11-11T02:03:38.080Z,51.50
2018-11-11T02:04:15.489Z,51.60
2018-11-11T02:04:53.081Z,51.60
2018-11-11T02:05:30.696Z,51.70
2018-11-11T02:06:08.319Z,51.50
2018-11-11T02:06:45.806Z,51.60
2018-11-11T02:07:23.240Z,51.50
2018-11-11T02:08:00.921Z,51.90
2018-11-11T02:08:38.733Z,51.70
2018-11-11T02:09:16.240Z,51.50
2018-11-11T02:09:53.865Z,51.60
2018-11-11T02:10:31.594Z,51.60
2018-11-11T02:11:09.243Z,51.70
2018-11-11T02:11:46.576Z,51.60
2018-11-11T02:12:24.095Z,51.60
2018-11-11T02:13:01.671Z,51.60
2018-11-11T02:13:39.121Z,51.60
2018-11-11T02:14:16.867Z,51.70
2018-11-11T02:14:54.111Z,52.10
2018-11-11T02:15:31.494Z,51.40
2018-11-11T02:16:09.166Z,51.70
2018-11-11T02:16:46.736Z,51.60
2018-11-11T02:17:24.369Z,51.70
2018-11-11T02:18:01.958Z,51.70
2018-11-11T02:18:39.544Z,51.50
2018-11-11T02:19:17.007Z,51.50
2018-11-11T02:19:54.659Z,51.70
2018-11-11T02:20:32.043Z,51.60
2018-11-11T02:21:09.845Z,51.70
2018-11-11T02:21:47.721Z,51.90
2018-11-11T02:22:25.344Z,51.70
2018-11-11T02:23:02.846Z,51.70
2018-11-11T02:23:40.315Z,51.70
2018-11-11T02:24:17.701Z,51.70
2018-11-11T02:24:55.246Z,51.70
2018-11-11T02:25:33.032Z,51.60
2018-11-11T02:26:10.393Z,51.60
2018-11-11T02:26:47.763Z,51.70
2018-11-11T02:27:25.149Z,51.70
2018-11-11T02:28:02.821Z,51.80
2018-11-11T02:28:40.270Z,51.80
2018-11-11T02:29:18.070Z,51.70
2018-11-11T02:29:55.766Z,51.70
2018-11-11T02:30:33.366Z,51.80
2018-11-11T02:31:11.023Z,51.80
2018-11-11T02:31:48.599Z,51.70
2018-11-11T02:32:25.846Z,51.80
2018-11-11T02:33:03.493Z,51.70
2018-11-11T02:33:41.379Z,51.70
2018-11-11T02:34:18.867Z,51.70
2018-11-11T02:34:56.277Z,51.70
2018-11-11T02:35:33.911Z,51.60
2018-11-11T02:36:11.354Z,51.70
2018-11-11T02:36:48.833Z,51.70
2018-11-11T02:37:26.352Z,51.70
2018-11-11T02:38:03.859Z,51.70
2018-11-11T02:38:41.289Z,51.70
2018-11-11T02:39:19.006Z,51.70
2018-11-11T02:39:56.504Z,51.60
2018-11-11T02:40:34.026Z,51.70
2018-11-11T02:41:11.606Z,51.60
2018-11-11T02:41:49.180Z,51.60
2018-11-11T02:42:26.564Z,51.70
2018-11-11T02:43:04.143Z,51.60
2018-11-11T02:43:41.532Z,51.70
2018-11-11T02:44:18.829Z,51.70
2018-11-11T02:44:56.176Z,51.70
2018-11-11T02:45:33.562Z,51.60
2018-11-11T02:46:10.919Z,51.70
2018-11-11T02:46:48.458Z,52.30
2018-11-11T02:47:25.879Z,51.80
2018-11-11T02:48:03.334Z,51.80
2018-11-11T02:48:40.736Z,51.70
2018-11-11T02:49:18.124Z,51.50
2018-11-11T02:49:55.529Z,51.50
2018-11-11T02:50:33.484Z,51.70
2018-11-11T02:51:10.950Z,51.80
2018-11-11T02:51:48.442Z,51.70
2018-11-11T02:52:26.018Z,51.60
2018-11-11T02:53:03.611Z,51.70
2018-11-11T02:53:41.218Z,51.60
2018-11-11T02:54:18.658Z,51.70
2018-11-11T02:54:56.468Z,51.50
2018-11-11T02:55:34.404Z,51.50
2018-11-11T02:56:12.039Z,51.60
2018-11-11T02:56:49.714Z,51.50
2018-11-11T02:57:27.263Z,51.70
2018-11-11T02:58:04.708Z,51.50
2018-11-11T02:58:42.435Z,51.70
2018-11-11T02:59:19.858Z,51.70
2018-11-11T02:59:57.423Z,51.60
2018-11-11T03:00:34.892Z,51.50
2018-11-11T03:01:12.266Z,51.50
2018-11-11T03:01:49.853Z,51.70
2018-11-11T03:02:27.180Z,51.60
2018-11-11T03:03:04.487Z,51.70
2018-11-11T03:03:42.084Z,51.60
2018-11-11T03:04:19.764Z,51.70
2018-11-11T03:04:57.667Z,51.60
2018-11-11T03:05:35.223Z,51.70
2018-11-11T03:06:12.711Z,51.60
2018-11-11T03:06:50.313Z,51.50
2018-11-11T03:07:27.978Z,51.60
2018-11-11T03:08:05.459Z,51.60
2018-11-11T03:08:43.248Z,51.70
2018-11-11T03:09:20.802Z,51.70
2018-11-11T03:09:58.396Z,51.70
2018-11-11T03:10:35.834Z,51.70
2018-11-11T03:11:13.250Z,51.60
2018-11-11T03:11:50.934Z,51.70
2018-11-11T03:12:28.711Z,51.70
2018-11-11T03:13:06.199Z,51.60
2018-11-11T03:13:43.487Z,52.20
2018-11-11T03:14:21.002Z,51.70
2018-11-11T03:14:58.738Z,51.70
2018-11-11T03:15:36.652Z,51.70
2018-11-11T03:16:14.345Z,51.70
2018-11-11T03:16:51.714Z,51.70
2018-11-11T03:17:29.178Z,51.60
2018-11-11T03:18:06.858Z,51.60
2018-11-11T03:18:44.448Z,51.70
2018-11-11T03:19:21.852Z,51.70
2018-11-11T03:19:59.402Z,51.60
2018-11-11T03:20:36.922Z,51.50
2018-11-11T03:21:14.454Z,51.70
2018-11-11T03:21:52.216Z,51.70
2018-11-11T03:22:29.779Z,51.70
2018-11-11T03:23:07.295Z,51.70
2018-11-11T03:23:44.988Z,51.60
2018-11-11T03:24:22.522Z,51.70
2018-11-11T03:25:00.127Z,51.70
2018-11-11T03:25:37.739Z,52.10
2018-11-11T03:26:15.365Z,51.70
2018-11-11T03:26:52.929Z,51.40
2018-11-11T03:27:30.542Z,51.60
2018-11-11T03:28:07.938Z,51.60
2018-11-11T03:28:45.335Z,51.50
2018-11-11T03:29:22.799Z,51.60
2018-11-11T03:30:00.232Z,51.70
2018-11-11T03:30:37.637Z,51.50
2018-11-11T03:31:15.039Z,51.60
2018-11-11T03:31:52.709Z,51.70
2018-11-11T03:32:30.029Z,51.50
2018-11-11T03:33:07.308Z,51.60
2018-11-11T03:33:44.643Z,51.70
2018-11-11T03:34:22.144Z,51.50
2018-11-11T03:34:59.701Z,51.60
2018-11-11T03:35:37.240Z,52.20
2018-11-11T03:36:14.763Z,51.60
2018-11-11T03:36:52.462Z,51.70
2018-11-11T03:37:30.079Z,51.70
2018-11-11T03:38:07.598Z,51.70
2018-11-11T03:38:45.038Z,51.70
2018-11-11T03:39:22.770Z,51.60
2018-11-11T03:40:00.438Z,51.60
2018-11-11T03:40:37.734Z,51.60
2018-11-11T03:41:15.117Z,51.60
2018-11-11T03:41:53.011Z,51.60
2018-11-11T03:42:30.763Z,51.60
2018-11-11T03:43:08.301Z,51.50
2018-11-11T03:43:45.780Z,51.50
2018-11-11T03:44:23.433Z,51.60
2018-11-11T03:45:01.308Z,51.60
2018-11-11T03:45:38.581Z,51.70
2018-11-11T03:46:16.209Z,51.70
2018-11-11T03:46:53.848Z,51.70
2018-11-11T03:47:31.458Z,51.50
2018-11-11T03:48:09.107Z,51.70
2018-11-11T03:48:46.695Z,51.70
2018-11-11T03:49:24.213Z,51.60
2018-11-11T03:50:01.663Z,51.70
2018-11-11T03:50:39.466Z,51.60
2018-11-11T03:51:16.725Z,51.60
2018-11-11T03:51:54.395Z,51.60
2018-11-11T03:52:31.885Z,51.60
2018-11-11T03:53:09.372Z,51.50
2018-11-11T03:53:46.917Z,51.60
2018-11-11T03:54:24.771Z,51.40
2018-11-11T03:55:02.274Z,51.50
2018-11-11T03:55:39.580Z,51.50
2018-11-11T03:56:17.100Z,51.60
2018-11-11T03:56:54.393Z,51.50
2018-11-11T03:57:31.982Z,51.60
2018-11-11T03:58:09.487Z,51.60
2018-11-11T03:58:47.058Z,51.50
2018-11-11T03:59:24.729Z,51.60
2018-11-11T04:00:02.168Z,51.60
2018-11-11T04:00:39.426Z,51.60
2018-11-11T04:01:16.907Z,51.60
2018-11-11T04:01:54.299Z,51.60
2018-11-11T04:02:31.945Z,51.50
2018-11-11T04:03:09.619Z,51.60
2018-11-11T04:03:47.020Z,52.20
2018-11-11T04:04:24.569Z,51.60
2018-11-11T04:05:01.989Z,51.50
2018-11-11T04:05:39.720Z,51.50
2018-11-11T04:06:16.927Z,51.60
2018-11-11T04:06:54.297Z,51.60
2018-11-11T04:07:31.883Z,51.40
2018-11-11T04:08:09.631Z,51.50
2018-11-11T04:08:47.184Z,51.60
2018-11-11T04:09:24.761Z,51.60
2018-11-11T04:10:02.429Z,51.40
2018-11-11T04:10:39.883Z,51.50
2018-11-11T04:11:17.468Z,51.50
2018-11-11T04:11:54.982Z,51.50
2018-11-11T04:12:32.652Z,51.60
2018-11-11T04:13:10.001Z,51.40
2018-11-11T04:13:47.496Z,51.60
2018-11-11T04:14:25.377Z,51.50
2018-11-11T04:15:02.917Z,51.50
2018-11-11T04:15:40.668Z,51.60
2018-11-11T04:16:18.252Z,51.60
2018-11-11T04:16:55.449Z,51.60
2018-11-11T04:17:32.749Z,51.40
2018-11-11T04:18:10.248Z,51.60
2018-11-11T04:18:47.837Z,51.50
2018-11-11T04:19:25.466Z,51.50
2018-11-11T04:20:02.903Z,51.60
2018-11-11T04:20:40.491Z,51.50
2018-11-11T04:21:18.239Z,51.60
2018-11-11T04:21:55.757Z,51.40
2018-11-11T04:22:33.624Z,51.50
2018-11-11T04:23:11.360Z,51.40
2018-11-11T04:23:48.787Z,51.60
2018-11-11T04:24:26.546Z,51.50
2018-11-11T04:25:04.402Z,51.40
2018-11-11T04:25:42.284Z,51.50
2018-11-11T04:26:19.745Z,51.60
2018-11-11T04:26:57.026Z,51.70
2018-11-11T04:27:34.561Z,51.70
2018-11-11T04:28:11.971Z,51.60
2018-11-11T04:28:49.479Z,51.60
2018-11-11T04:29:26.906Z,51.60
2018-11-11T04:30:04.395Z,51.50
2018-11-11T04:30:42.009Z,51.50
2018-11-11T04:31:19.792Z,51.60
2018-11-11T04:31:57.179Z,51.70
2018-11-11T04:32:34.836Z,51.40
2018-11-11T04:33:12.719Z,51.60
2018-11-11T04:33:50.233Z,51.60
2018-11-11T04:34:27.812Z,51.60
2018-11-11T04:35:05.294Z,51.60
2018-11-11T04:35:42.615Z,51.50
2018-11-11T04:36:20.209Z,51.60
2018-11-11T04:36:57.851Z,51.50
2018-11-11T04:37:35.390Z,51.60
2018-11-11T04:38:12.954Z,51.60
2018-11-11T04:38:50.394Z,51.60
2018-11-11T04:39:27.873Z,51.60
2018-11-11T04:40:05.245Z,51.60
2018-11-11T04:40:42.757Z,51.60
2018-11-11T04:41:20.272Z,51.60
2018-11-11T04:41:57.758Z,51.50
2018-11-11T04:42:35.494Z,51.60
2018-11-11T04:43:12.982Z,51.70
2018-11-11T04:43:50.534Z,51.60
2018-11-11T04:44:28.206Z,51.60
2018-11-11T04:45:05.813Z,51.70
2018-11-11T04:45:43.436Z,51.60
2018-11-11T04:46:21.256Z,51.70
2018-11-11T04:46:58.828Z,51.50
2018-11-11T04:47:36.072Z,51.60
2018-11-11T04:48:13.446Z,51.50
2018-11-11T04:48:51.218Z,51.50
2018-11-11T04:49:28.659Z,51.40
2018-11-11T04:50:06.533Z,51.60
2018-11-11T04:50:44.131Z,51.70
2018-11-11T04:51:21.648Z,51.50
2018-11-11T04:51:59.052Z,51.70
2018-11-11T04:52:36.675Z,51.60
2018-11-11T04:53:14.265Z,51.60
2018-11-11T04:53:52.017Z,51.50
2018-11-11T04:54:29.422Z,51.70
2018-11-11T04:55:07.117Z,51.60
2018-11-11T04:55:44.504Z,51.70
2018-11-11T04:56:22.008Z,51.70
2018-11-11T04:56:59.677Z,51.70
2018-11-11T04:57:37.196Z,51.50
2018-11-11T04:58:14.606Z,51.70
2018-11-11T04:58:52.098Z,51.50
2018-11-11T04:59:29.735Z,51.60
2018-11-11T05:00:07.375Z,51.60
2018-11-11T05:00:44.895Z,51.50
2018-11-11T05:01:22.527Z,51.60
2018-11-11T05:02:00.162Z,51.60
2018-11-11T05:02:37.650Z,51.70
2018-11-11T05:03:15.188Z,51.70
2018-11-11T05:03:53.013Z,51.40
2018-11-11T05:04:30.634Z,51.60
2018-11-11T05:05:08.502Z,51.60
2018-11-11T05:05:46.157Z,51.60
2018-11-11T05:06:23.644Z,51.70
2018-11-11T05:07:00.977Z,51.60
2018-11-11T05:07:38.660Z,51.70
2018-11-11T05:08:16.424Z,51.60
2018-11-11T05:08:53.942Z,51.60
2018-11-11T05:09:31.786Z,51.60
2018-11-11T05:10:09.604Z,51.60
2018-11-11T05:10:46.969Z,51.60
2018-11-11T05:11:24.360Z,51.60
2018-11-11T05:12:01.901Z,51.60
2018-11-11T05:12:39.261Z,51.50
2018-11-11T05:13:17.032Z,51.70
2018-11-11T05:13:54.433Z,51.50
2018-11-11T05:14:32.047Z,51.60
2018-11-11T05:15:09.842Z,51.70
2018-11-11T05:15:47.319Z,51.60
2018-11-11T05:16:24.951Z,51.60
2018-11-11T05:17:02.338Z,51.50
2018-11-11T05:17:39.932Z,51.50
2018-11-11T05:18:17.512Z,51.50
2018-11-11T05:18:55.327Z,51.50
2018-11-11T05:19:32.726Z,51.40
2018-11-11T05:20:10.593Z,51.40
2018-11-11T05:20:48.157Z,51.50
2018-11-11T05:21:25.644Z,51.50
2018-11-11T05:22:03.426Z,51.50
2018-11-11T05:22:41.047Z,51.50
2018-11-11T05:23:18.707Z,51.50
2018-11-11T05:23:56.279Z,51.60
2018-11-11T05:24:33.768Z,51.50
2018-11-11T05:25:11.250Z,51.50
2018-11-11T05:25:48.549Z,51.60
2018-11-11T05:26:26.099Z,51.60
2018-11-11T05:27:03.555Z,51.70
2018-11-11T05:27:41.059Z,51.60
2018-11-11T05:28:18.747Z,51.60
2018-11-11T05:28:56.458Z,51.60
2018-11-11T05:29:33.856Z,51.50
2018-11-11T05:30:11.485Z,51.50
2018-11-11T05:30:49.037Z,51.50
2018-11-11T05:31:27.042Z,51.40
2018-11-11T05:32:04.399Z,51.40
2018-11-11T05:32:42.041Z,51.40
2018-11-11T05:33:19.516Z,52.00
2018-11-11T05:33:57.017Z,51.50
2018-11-11T05:34:34.727Z,51.50
2018-11-11T05:35:47.650Z,51.40
2018-11-11T05:36:25.260Z,52.00
2018-11-11T05:37:02.977Z,51.50
2018-11-11T05:37:40.671Z,51.50
2018-11-11T05:38:18.267Z,51.40
2018-11-11T05:38:55.861Z,51.40
2018-11-11T05:39:33.352Z,51.50
2018-11-11T05:40:10.940Z,51.40
2018-11-11T05:40:48.669Z,51.50
2018-11-11T05:41:26.131Z,51.40
2018-11-11T05:42:03.617Z,51.50
2018-11-11T05:42:40.968Z,51.50
2018-11-11T05:43:18.466Z,51.50
2018-11-11T05:43:55.999Z,51.40
2018-11-11T05:44:33.364Z,52.00
2018-11-11T05:45:10.797Z,51.50
2018-11-11T05:45:48.562Z,51.40
2018-11-11T05:46:26.381Z,51.50
2018-11-11T05:47:04.052Z,51.50
2018-11-11T05:47:41.512Z,51.40
2018-11-11T05:48:19.502Z,51.50
2018-11-11T05:48:56.954Z,51.40
2018-11-11T05:49:34.329Z,51.50
2018-11-11T05:50:11.841Z,51.60
2018-11-11T05:50:49.267Z,51.60
2018-11-11T05:51:27.075Z,51.50
2018-11-11T05:52:04.381Z,51.60
2018-11-11T05:52:41.970Z,51.60
2018-11-11T05:53:19.305Z,51.50
2018-11-11T05:53:56.876Z,51.40
2018-11-11T05:54:34.180Z,51.40
2018-11-11T05:55:11.775Z,51.40
2018-11-11T05:55:49.476Z,51.40
2018-11-11T05:56:27.264Z,51.40
2018-11-11T05:57:04.583Z,51.30
2018-11-11T05:57:42.099Z,51.40
2018-11-11T05:58:19.481Z,51.50
2018-11-11T05:58:56.987Z,51.30
2018-11-11T05:59:34.631Z,51.40
2018-11-11T06:00:12.116Z,51.40
2018-11-11T06:00:49.716Z,51.30
2018-11-11T06:01:27.165Z,52.00
2018-11-11T06:02:04.766Z,51.90
2018-11-11T06:02:42.320Z,51.30
2018-11-11T06:03:19.876Z,51.50
2018-11-11T06:03:57.561Z,51.20
2018-11-11T06:04:35.020Z,51.30
2018-11-11T06:05:12.622Z,51.20
2018-11-11T06:05:50.041Z,51.10
2018-11-11T06:06:27.683Z,51.30
2018-11-11T06:07:05.178Z,51.20
2018-11-11T06:07:42.570Z,51.40
2018-11-11T06:08:20.047Z,51.20
2018-11-11T06:08:57.529Z,51.40
2018-11-11T06:09:35.014Z,51.20
2018-11-11T06:10:12.474Z,51.40
2018-11-11T06:10:49.908Z,51.20
2018-11-11T06:11:27.249Z,51.20
2018-11-11T06:12:04.575Z,51.10
2018-11-11T06:12:41.882Z,51.10
2018-11-11T06:13:19.298Z,51.10
2018-11-11T06:13:56.761Z,51.20
2018-11-11T06:14:34.121Z,51.20
2018-11-11T06:15:11.662Z,51.30
2018-11-11T06:15:49.072Z,51.20
2018-11-11T06:16:26.697Z,51.10
2018-11-11T06:17:04.113Z,51.20
2018-11-11T06:17:41.544Z,51.30
2018-11-11T06:18:19.203Z,51.30
2018-11-11T06:18:56.577Z,51.00
2018-11-11T06:19:34.173Z,51.30
2018-11-11T06:20:11.842Z,51.20
2018-11-11T06:20:49.526Z,51.10
2018-11-11T06:21:27.075Z,51.10
2018-11-11T06:22:04.618Z,51.20
2018-11-11T06:22:42.128Z,51.00
2018-11-11T06:23:19.763Z,51.10
2018-11-11T06:23:57.257Z,51.00
2018-11-11T06:24:34.727Z,51.10
2018-11-11T06:25:12.090Z,51.20
2018-11-11T06:25:49.864Z,51.10
2018-11-11T06:26:27.165Z,51.20
2018-11-11T06:27:04.471Z,51.10
2018-11-11T06:27:41.995Z,51.30
2018-11-11T06:28:19.380Z,51.30
2018-11-11T06:28:56.728Z,52.00
2018-11-11T06:29:34.322Z,51.10
2018-11-11T06:30:11.934Z,51.30
2018-11-11T06:30:49.613Z,51.10
2018-11-11T06:31:27.054Z,51.10
2018-11-11T06:32:04.772Z,51.00
2018-11-11T06:32:42.152Z,51.10
2018-11-11T06:33:19.866Z,51.00
2018-11-11T06:33:57.304Z,51.10
2018-11-11T06:34:35.111Z,51.00
2018-11-11T06:35:12.667Z,51.00
2018-11-11T06:35:50.058Z,51.00
2018-11-11T06:36:27.613Z,51.00
2018-11-11T06:37:05.054Z,51.00
2018-11-11T06:37:42.722Z,51.00
2018-11-11T06:38:20.071Z,51.00
2018-11-11T06:38:57.795Z,51.00
2018-11-11T06:39:35.241Z,51.00
2018-11-11T06:40:12.703Z,50.90
2018-11-11T06:40:50.125Z,51.10
2018-11-11T06:41:27.457Z,50.80
2018-11-11T06:42:04.806Z,50.70
2018-11-11T06:42:42.108Z,50.90
2018-11-11T06:43:19.661Z,51.00
2018-11-11T06:43:57.229Z,50.80
2018-11-11T06:44:34.906Z,50.90
2018-11-11T06:45:12.265Z,50.80
2018-11-11T06:45:49.596Z,51.00
2018-11-11T06:46:26.921Z,51.00
2018-11-11T06:47:04.493Z,51.00
2018-11-11T06:47:41.950Z,51.10
2018-11-11T06:48:19.520Z,51.10
2018-11-11T06:48:57.222Z,51.00
2018-11-11T06:49:34.841Z,50.90
2018-11-11T06:50:12.228Z,51.00
2018-11-11T06:50:49.978Z,50.90
2018-11-11T06:51:27.521Z,50.80
2018-11-11T06:52:04.836Z,50.70
2018-11-11T06:52:42.191Z,51.00
2018-11-11T06:53:19.767Z,50.90
2018-11-11T06:55:24.224Z,51.00
2018-11-11T06:56:01.572Z,51.00
2018-11-11T06:56:38.953Z,50.90
2018-11-11T06:57:16.642Z,50.80
2018-11-11T06:57:54.187Z,50.80
2018-11-11T06:58:31.965Z,50.90
2018-11-11T06:59:09.487Z,50.90
2018-11-11T06:59:47.041Z,50.90
2018-11-11T07:00:24.820Z,50.70
2018-11-11T07:01:02.200Z,50.60
2018-11-11T07:01:39.821Z,50.70
2018-11-11T07:02:17.611Z,50.80
2018-11-11T07:02:55.226Z,50.60
2018-11-11T07:03:32.940Z,50.90
2018-11-11T07:04:10.523Z,50.70
2018-11-11T07:04:48.133Z,50.80
2018-11-11T07:05:25.429Z,50.60
2018-11-11T07:06:03.062Z,50.80
2018-11-11T07:06:40.842Z,50.50
2018-11-11T07:07:18.837Z,50.50
2018-11-11T07:07:56.432Z,50.50
2018-11-11T07:08:34.036Z,50.40
2018-11-11T07:09:11.484Z,50.30
2018-11-11T07:09:48.891Z,50.50
2018-11-11T07:10:26.185Z,50.40
2018-11-11T07:11:03.767Z,50.20
2018-11-11T07:11:41.401Z,50.30
2018-11-11T07:12:18.851Z,50.20
2018-11-11T07:12:56.077Z,50.50
2018-11-11T07:13:33.582Z,50.40
2018-11-11T07:14:11.257Z,50.30
2018-11-11T07:14:49.093Z,50.20
2018-11-11T07:15:26.562Z,50.20
2018-11-11T07:16:04.033Z,50.30
2018-11-11T07:16:41.606Z,50.20
2018-11-11T07:17:19.003Z,50.20
2018-11-11T07:18:37.954Z,50.20
2018-11-11T07:19:15.635Z,50.00
2018-11-11T07:19:53.101Z,49.90
2018-11-11T07:20:30.532Z,50.10
2018-11-11T07:21:08.126Z,50.00
2018-11-11T07:21:45.766Z,49.90
2018-11-11T07:22:23.237Z,49.80
2018-11-11T07:23:00.919Z,49.80
2018-11-11T07:23:38.550Z,49.90
2018-11-11T07:24:16.262Z,50.00
2018-11-11T07:24:53.933Z,49.90
2018-11-11T07:25:31.189Z,50.00
2018-11-11T07:26:08.619Z,50.20
2018-11-11T07:26:46.272Z,50.60
2018-11-11T07:27:23.774Z,50.00
2018-11-11T07:28:01.342Z,49.90
2018-11-11T07:28:39.147Z,49.90
2018-11-11T07:29:17.160Z,49.80
2018-11-11T07:29:54.593Z,49.90
2018-11-11T07:30:32.205Z,49.90
2018-11-11T07:31:09.652Z,49.90
2018-11-11T07:31:47.055Z,49.90
2018-11-11T07:32:24.505Z,50.20
2018-11-11T07:33:02.016Z,50.30
2018-11-11T07:33:39.554Z,50.50
2018-11-11T07:34:17.078Z,50.20
2018-11-11T07:34:54.599Z,50.20
2018-11-11T07:35:32.023Z,50.30
2018-11-11T07:36:09.716Z,50.20
2018-11-11T07:36:47.397Z,50.30
2018-11-11T07:37:25.161Z,50.70
2018-11-11T07:38:02.960Z,50.60
2018-11-11T07:38:40.735Z,50.30
2018-11-11T07:39:18.347Z,50.40
2018-11-11T07:39:55.954Z,50.20
2018-11-11T07:40:33.721Z,50.10
2018-11-11T07:41:11.141Z,50.40
2018-11-11T07:41:48.656Z,50.40
2018-11-11T07:42:26.317Z,50.30
2018-11-11T07:43:04.079Z,50.20
2018-11-11T07:43:41.704Z,50.10
2018-11-11T07:44:19.582Z,50.40
2018-11-11T07:44:57.222Z,50.20
2018-11-11T07:45:34.789Z,50.40
2018-11-11T07:46:12.551Z,50.40
2018-11-11T07:46:50.234Z,50.50
2018-11-11T07:47:27.878Z,51.00
2018-11-11T07:48:05.706Z,50.20
2018-11-11T07:48:43.235Z,50.10
2018-11-11T07:49:20.869Z,50.60
2018-11-11T07:49:58.343Z,50.30
2018-11-11T07:50:35.735Z,50.50
2018-11-11T07:51:13.214Z,50.50
2018-11-11T07:51:50.720Z,50.40
2018-11-11T07:52:28.371Z,50.50
2018-11-11T07:53:05.943Z,50.30
2018-11-11T07:53:43.544Z,50.30
2018-11-11T07:54:21.274Z,50.40
2018-11-11T07:54:58.917Z,50.50
2018-11-11T07:55:36.583Z,50.50
2018-11-11T07:56:14.041Z,50.40
2018-11-11T07:56:51.564Z,50.40
2018-11-11T07:57:28.926Z,50.50
2018-11-11T07:58:06.264Z,50.50
2018-11-11T07:58:44.481Z,50.40
2018-11-11T07:59:22.201Z,50.40
2018-11-11T07:59:59.669Z,50.50
2018-11-11T08:00:37.490Z,50.40
2018-11-11T08:01:14.847Z,50.30
2018-11-11T08:01:52.630Z,50.60
2018-11-11T08:02:30.381Z,50.30
2018-11-11T08:03:07.937Z,50.50
2018-11-11T08:03:45.596Z,50.40
2018-11-11T08:04:22.957Z,50.40
2018-11-11T08:05:00.416Z,50.50
2018-11-11T08:05:37.697Z,50.60
2018-11-11T08:06:15.076Z,50.40